This is the latest recevied weather packets stored in our database for station/object KK7KRZ. If no packets are shown the sender has not sent any weather packets the latest 10 day(s).
| Time | Temp. | Humidity | Pressure | Rain* | Wind** | Luminosity | Snow |
|---|---|---|---|---|---|---|---|
| 1778002833 | 15° C | 80% | 1016.3 hPa | 0 mm | - | 101 W/m² | - |
| 1778002530 | 14.44° C | 81% | 1016.2 hPa | 0 mm | - | 106 W/m² | - |
| 1778002227 | 13.89° C | 81% | 1016.2 hPa | 0 mm | - | 113 W/m² | - |
| 1778001925 | 13.89° C | 82% | 1016.4 hPa | 0 mm | - | 120 W/m² | - |
| 1778001621 | 13.89° C | 82% | 1016.2 hPa | 0 mm | - | 116 W/m² | - |
| 1778001316 | 13.89° C | 83% | 1016.1 hPa | 0 mm | - | 115 W/m² | - |
| 1778001014 | 13.89° C | 82% | 1016.1 hPa | 0 mm | - | 118 W/m² | - |
| 1778000710 | 13.89° C | 82% | 1016.2 hPa | 0 mm | - | 121 W/m² | - |
| 1778000406 | 13.89° C | 81% | 1016.1 hPa | 0 mm | - | 120 W/m² | - |
| 1778000096 | 14.44° C | 80% | 1016.2 hPa | 0 mm | - | 104 W/m² | - |
| 1777999792 | 14.44° C | 81% | 1016.1 hPa | 0 mm | - | 94 W/m² | - |
| 1777999488 | 14.44° C | 83% | 1016.2 hPa | 0 mm | - | 89 W/m² | - |
| 1777999186 | 13.89° C | 83% | 1015.9 hPa | 0 mm | - | 88 W/m² | - |
| 1777998884 | 13.89° C | 83% | 1016.1 hPa | 0 mm | - | 102 W/m² | - |
| 1777998584 | 13.33° C | 83% | 1015.9 hPa | 0 mm | - | 107 W/m² | - |
| 1777998279 | 13.33° C | 83% | 1015.9 hPa | 0 mm | - | 106 W/m² | - |
| 1777997976 | 13.33° C | 84% | 1016 hPa | 0 mm | - | 111 W/m² | - |
| 1777997672 | 12.78° C | 84% | 1016.1 hPa | 0 mm | - | 117 W/m² | - |
| 1777997370 | 13.33° C | 84% | 1016.1 hPa | 0 mm | - | 106 W/m² | - |
| 1777997068 | 13.33° C | 85% | 1016.1 hPa | 0 mm | - | 100 W/m² | - |
| 1777996764 | 12.78° C | 85% | 1016.3 hPa | 0 mm | - | 93 W/m² | - |
| 1777996461 | 12.78° C | 85% | 1016.2 hPa | 0 mm | - | 85 W/m² | - |
| 1777996158 | 13.33° C | 85% | 1016 hPa | 0 mm | - | 67 W/m² | - |
| 1777995854 | 13.33° C | 86% | 1016.1 hPa | 0 mm | - | 57 W/m² | - |
| 1777995550 | 12.78° C | 87% | 1015.9 hPa | 0 mm | - | 54 W/m² | - |
* Rain latest hour (hover to see other rain measurements)
** Current wind speed in m/s (hover to see current wind gust speed)